Time;durP1;ratioP1;P1;durP2;ratioP2;P2;SDS_P1;SDS_P2;PMS_P1;PMS_P2;Temp;Humidity;BMP_temperature;BMP_pressure;BME280_temperature;BME280_humidity;BME280_pressure;Samples;Min_cycle;Max_cycle;Signal;HPM_P1;HPM_P2
2022/03/18 00:02:14;;;;;;;21.00;8.27;;;2.10;99.90;;;;;;5077842;28;20391;-58
2022/03/18 00:04:40;;;;;;;23.00;8.98;;;;;;;;;;5095893;28;20040;-58
2022/03/18 00:07:07;;;;;;;17.10;8.25;;;1.90;99.90;;;;;;5095788;28;20085;-58
2022/03/18 00:09:32;;;;;;;18.00;8.68;;;2.00;99.90;;;;;;5095605;28;20040;-58
2022/03/18 00:11:58;;;;;;;22.67;9.32;;;1.90;99.90;;;;;;5094946;28;20033;-58
2022/03/18 00:14:24;;;;;;;22.70;9.85;;;1.80;99.90;;;;;;5095666;28;20119;-58
2022/03/18 00:16:50;;;;;;;28.13;10.77;;;2.40;99.90;;;;;;5095913;28;20050;-58
2022/03/18 00:19:16;;;;;;;27.70;10.63;;;1.50;99.90;;;;;;5095591;28;20185;-58
2022/03/18 00:21:42;;;;;;;25.88;11.50;;;2.00;99.90;;;;;;5095417;28;20044;-58
2022/03/18 00:24:09;;;;;;;26.27;10.90;;;;;;;;;;5095273;28;20093;-59
2022/03/18 00:26:35;;;;;;;22.58;10.85;;;2.50;99.90;;;;;;5095291;28;20048;-58
2022/03/18 00:29:02;;;;;;;20.75;9.63;;;2.20;99.90;;;;;;5095347;28;20047;-58
2022/03/18 00:31:29;;;;;;;23.33;10.68;;;1.70;99.90;;;;;;5095430;28;20364;-58
2022/03/18 00:33:55;;;;;;;22.67;10.18;;;;;;;;;;5095496;28;20042;-58
2022/03/18 00:36:21;;;;;;;21.92;10.50;;;2.20;99.90;;;;;;5077036;28;20044;-58
2022/03/18 00:38:50;;;;;;;29.15;10.77;;;1.80;99.90;;;;;;5095346;28;20386;-59
2022/03/18 00:41:15;;;;;;;25.70;10.63;;;1.80;99.90;;;;;;5095280;28;20036;-58
2022/03/18 00:43:43;;;;;;;27.95;10.75;;;0.60;99.90;;;;;;5094682;28;20032;-58
2022/03/18 00:46:09;;;;;;;26.05;11.32;;;0.80;99.90;;;;;;5094670;28;20044;-58
2022/03/18 00:54:03;;;;;;;29.30;11.73;;;1.20;99.90;;;;;;5079762;28;20158;-58
2022/03/18 00:56:28;;;;;;;26.75;10.52;;;1.80;99.90;;;;;;5094912;28;20487;-58
2022/03/18 00:58:55;;;;;;;26.15;10.85;;;;;;;;;;5094937;28;20399;-58
2022/03/18 01:01:20;;;;;;;22.73;10.70;;;1.80;99.90;;;;;;5076973;28;20120;-58
2022/03/18 01:03:48;;;;;;;28.15;11.30;;;;;;;;;;5094645;28;20115;-58
2022/03/18 01:06:13;;;;;;;22.95;9.57;;;1.00;99.90;;;;;;5094562;28;20509;-58
2022/03/18 01:08:39;;;;;;;21.75;10.27;;;1.90;99.90;;;;;;5094441;28;20039;-58
2022/03/18 01:11:05;;;;;;;17.38;10.57;;;1.60;99.90;;;;;;5094541;28;20098;-58
2022/03/18 01:13:30;;;;;;;18.00;10.23;;;1.70;99.90;;;;;;5094769;28;20093;-58
2022/03/18 01:15:56;;;;;;;24.48;9.85;;;1.80;99.90;;;;;;5094342;28;20046;-58
2022/03/18 01:18:23;;;;;;;21.48;9.85;;;1.60;99.90;;;;;;5094454;28;20046;-58
2022/03/18 01:20:51;;;;;;;24.80;11.02;;;1.60;99.90;;;;;;5094521;28;20051;-58
2022/03/18 01:23:16;;;;;;;20.88;10.13;;;1.80;99.90;;;;;;5093177;28;20036;-58
2022/03/18 01:25:42;;;;;;;22.73;10.07;;;1.70;99.90;;;;;;5094106;28;20055;-58
2022/03/18 01:28:08;;;;;;;19.67;9.15;;;1.70;99.90;;;;;;5094437;28;20032;-58
2022/03/18 01:30:34;;;;;;;20.15;9.32;;;1.70;99.90;;;;;;5094138;28;20502;-58
2022/03/18 01:33:00;;;;;;;18.70;9.20;;;1.50;99.90;;;;;;5094317;28;20054;-58
2022/03/18 01:35:26;;;;;;;20.38;9.52;;;1.40;99.90;;;;;;5093991;28;20554;-58
2022/03/18 01:37:52;;;;;;;22.88;9.63;;;1.60;99.90;;;;;;5093841;28;20040;-58
2022/03/18 01:40:18;;;;;;;21.45;9.40;;;1.70;99.90;;;;;;5094063;28;20036;-58
2022/03/18 01:42:43;;;;;;;19.60;10.25;;;1.50;99.90;;;;;;5094178;28;20479;-58
2022/03/18 01:45:09;;;;;;;24.40;10.40;;;1.70;99.90;;;;;;5093920;28;20097;-58
2022/03/18 01:47:35;;;;;;;23.75;10.65;;;1.20;99.90;;;;;;5093859;28;20028;-58
2022/03/18 01:50:01;;;;;;;20.67;9.82;;;;;;;;;;5093824;28;20039;-58
2022/03/18 01:52:27;;;;;;;30.85;10.18;;;1.70;99.90;;;;;;5094189;28;20039;-58
2022/03/18 01:54:54;;;;;;;23.48;11.40;;;1.10;99.90;;;;;;5093880;28;20043;-58
2022/03/18 01:57:22;;;;;;;27.77;12.02;;;2.20;99.90;;;;;;5093540;28;20055;-58
2022/03/18 01:59:49;;;;;;;19.13;10.35;;;1.50;99.90;;;;;;5093839;28;20051;-58
2022/03/18 02:02:16;;;;;;;19.08;9.18;;;1.70;99.90;;;;;;5082707;28;20028;-58
2022/03/18 02:04:42;;;;;;;17.27;8.82;;;1.10;99.90;;;;;;5092265;28;20092;-58
2022/03/18 02:07:08;;;;;;;19.25;8.45;;;1.50;99.90;;;;;;5068965;28;20037;-58
2022/03/18 02:09:35;;;;;;;18.98;8.70;;;1.50;99.90;;;;;;5065109;28;20052;-58
2022/03/18 02:12:02;;;;;;;18.00;8.63;;;1.40;99.90;;;;;;5075659;28;20036;-58
2022/03/18 02:14:34;;;;;;;16.88;8.25;;;1.20;99.90;;;;;;5093468;28;20040;-58
2022/03/18 02:17:02;;;;;;;18.05;9.00;;;0.60;99.90;;;;;;5093433;28;20040;-66
2022/03/18 02:19:28;;;;;;;17.30;9.32;;;2.00;99.90;;;;;;5093179;28;20475;-66
2022/03/18 02:21:55;;;;;;;17.02;8.73;;;0.30;99.90;;;;;;5075502;28;20050;-66
2022/03/18 02:24:22;;;;;;;20.77;9.32;;;1.70;99.90;;;;;;5093134;28;20040;-65
2022/03/18 02:26:52;;;;;;;18.10;8.52;;;0.30;99.90;;;;;;5093453;28;20040;-65
2022/03/18 02:29:19;;;;;;;17.58;7.97;;;1.20;99.90;;;;;;5093214;28;20475;-66
2022/03/18 02:31:45;;;;;;;17.50;7.93;;;;;;;;;;5093150;28;20467;-66
2022/03/18 02:34:12;;;;;;;19.38;8.68;;;1.20;99.90;;;;;;5092751;28;20395;-66
2022/03/18 02:36:38;;;;;;;18.88;8.93;;;1.30;99.90;;;;;;5093483;28;20043;-66
2022/03/18 02:39:04;;;;;;;17.27;8.32;;;1.10;99.90;;;;;;5093287;28;20036;-65
2022/03/18 02:41:30;;;;;;;16.27;7.65;;;1.20;99.90;;;;;;5093413;28;20038;-66
2022/03/18 02:43:56;;;;;;;17.13;8.07;;;1.00;99.90;;;;;;5092916;28;20119;-65
2022/03/18 02:46:22;;;;;;;16.00;8.13;;;0.60;99.90;;;;;;5074956;28;20047;-66
2022/03/18 02:48:48;;;;;;;12.85;7.75;;;1.10;99.90;;;;;;5093023;28;20031;-65
2022/03/18 02:51:14;;;;;;;19.08;8.75;;;0.50;99.90;;;;;;5074959;28;20136;-66
2022/03/18 02:53:39;;;;;;;18.98;9.00;;;1.00;99.90;;;;;;5092831;28;20131;-65
2022/03/18 02:56:06;;;;;;;17.58;8.10;;;1.20;99.90;;;;;;5092794;28;20051;-65
2022/03/18 02:58:32;;;;;;;17.00;7.78;;;0.60;99.90;;;;;;5093054;28;20093;-65
2022/03/18 03:00:58;;;;;;;18.98;8.43;;;0.90;99.90;;;;;;5092438;28;20040;-65
2022/03/18 03:03:24;;;;;;;19.35;8.57;;;;;;;;;;5092664;28;20043;-66
2022/03/18 03:08:35;;;;;;;21.23;9.57;;;;;;;;;;5093117;28;20097;-65
2022/03/18 03:11:04;;;;;;;23.08;9.63;;;0.90;99.90;;;;;;5092747;28;20036;-66
2022/03/18 03:13:31;;;;;;;27.92;11.73;;;0.60;99.90;;;;;;5092823;28;20040;-65
2022/03/18 03:15:56;;;;;;;26.17;10.52;;;1.10;99.90;;;;;;5092614;28;20051;-66
2022/03/18 03:18:22;;;;;;;23.40;11.60;;;0.90;99.90;;;;;;5074906;28;20119;-66
2022/03/18 03:20:51;;;;;;;23.67;11.20;;;1.10;99.90;;;;;;5092733;28;20039;-58
2022/03/18 03:23:19;;;;;;;17.58;10.25;;;;;;;;;;5092772;28;20035;-58
2022/03/18 03:25:45;;;;;;;30.02;10.75;;;;;;;;;;5092616;28;20052;-58
2022/03/18 03:28:11;;;;;;;26.33;10.30;;;1.10;99.90;;;;;;5092526;28;20483;-58
2022/03/18 03:30:37;;;;;;;19.27;9.52;;;1.10;99.90;;;;;;5092953;28;20038;-58
2022/03/18 03:33:03;;;;;;;24.42;10.27;;;1.90;99.90;;;;;;5092511;28;20544;-58
2022/03/18 03:35:28;;;;;;;24.05;10.10;;;1.10;99.90;;;;;;5074738;28;20048;-58
2022/03/18 03:37:54;;;;;;;25.77;9.48;;;1.20;99.90;;;;;;5092855;28;20040;-58
2022/03/18 03:40:20;;;;;;;22.40;9.60;;;1.40;99.90;;;;;;5092630;28;20488;-58
2022/03/18 03:42:46;;;;;;;22.63;9.55;;;0.60;99.90;;;;;;5092362;28;20037;-58
2022/03/18 03:45:13;;;;;;;25.50;10.38;;;0.60;99.90;;;;;;5092640;28;20078;-58
2022/03/18 03:47:40;;;;;;;20.80;10.50;;;1.90;99.90;;;;;;5095023;28;20031;-59
2022/03/18 03:50:09;;;;;;;23.30;10.15;;;1.00;99.90;;;;;;5096220;28;20044;-59
2022/03/18 03:52:37;;;;;;;20.02;10.30;;;1.60;99.90;;;;;;5096037;28;20050;-58
2022/03/18 03:55:04;;;;;;;19.58;9.52;;;0.70;99.90;;;;;;5096566;28;20043;-59
2022/03/18 03:57:30;;;;;;;20.77;9.57;;;0.80;99.90;;;;;;5095853;28;20457;-59
2022/03/18 03:59:55;;;;;;;20.40;9.80;;;1.90;99.90;;;;;;5095881;28;20047;-58
2022/03/18 04:02:22;;;;;;;26.73;10.55;;;1.80;99.90;;;;;;5096166;28;20035;-58
2022/03/18 04:04:48;;;;;;;19.65;9.82;;;0.00;99.90;;;;;;5095838;28;20044;-59
2022/03/18 04:07:14;;;;;;;28.42;10.57;;;1.00;99.90;;;;;;5095663;28;20493;-58
2022/03/18 04:09:40;;;;;;;25.02;9.98;;;0.90;99.90;;;;;;5095668;28;20517;-58
2022/03/18 04:12:06;;;;;;;26.80;10.25;;;1.00;99.90;;;;;;5095595;28;20040;-58
2022/03/18 04:14:32;;;;;;;22.23;9.60;;;0.80;99.90;;;;;;5095804;28;20062;-58
2022/03/18 04:16:58;;;;;;;22.83;9.50;;;;;;;;;;5095495;28;20043;-58
2022/03/18 04:19:24;;;;;;;21.98;9.80;;;1.00;99.90;;;;;;5095572;28;20050;-58
2022/03/18 04:21:49;;;;;;;24.45;9.88;;;0.60;99.90;;;;;;5095568;28;20118;-58
2022/03/18 04:24:15;;;;;;;23.60;10.27;;;0.70;99.90;;;;;;5095187;28;20044;-58
2022/03/18 04:26:41;;;;;;;21.65;10.25;;;0.30;99.90;;;;;;5095267;28;20445;-58
2022/03/18 04:29:08;;;;;;;25.48;11.05;;;0.60;99.90;;;;;;5095560;28;20066;-66
2022/03/18 04:31:34;;;;;;;20.30;9.70;;;0.70;99.90;;;;;;5095418;28;20032;-66
2022/03/18 04:34:00;;;;;;;23.75;10.20;;;0.70;99.90;;;;;;5095322;28;20504;-66
2022/03/18 04:36:26;;;;;;;28.58;10.88;;;0.60;99.90;;;;;;5095599;28;20115;-66
2022/03/18 04:38:51;;;;;;;23.02;11.48;;;0.90;99.90;;;;;;5095349;28;20047;-66
2022/03/18 04:41:17;;;;;;;20.83;10.77;;;-0.20;99.90;;;;;;5095298;28;20088;-65
2022/03/18 04:43:43;;;;;;;24.63;9.25;;;0.70;99.90;;;;;;5095162;28;20090;-65
2022/03/18 04:46:08;;;;;;;20.52;9.88;;;0.60;99.90;;;;;;5095143;28;20047;-65
2022/03/18 04:48:34;;;;;;;24.00;10.45;;;0.60;99.90;;;;;;5095037;28;20039;-65
2022/03/18 04:51:00;;;;;;;23.40;9.68;;;0.80;99.90;;;;;;5095189;28;20101;-66
2022/03/18 04:53:26;;;;;;;27.13;10.35;;;0.60;99.90;;;;;;5095171;28;20036;-66
2022/03/18 04:55:51;;;;;;;20.33;9.57;;;0.10;99.90;;;;;;5094705;28;20044;-66
2022/03/18 04:58:17;;;;;;;20.98;9.35;;;0.20;99.90;;;;;;5094829;28;20043;-65
2022/03/18 05:00:43;;;;;;;20.50;10.20;;;1.00;99.90;;;;;;5076833;28;20062;-65
2022/03/18 05:03:11;;;;;;;22.40;9.45;;;0.50;99.90;;;;;;5094549;28;20076;-66
2022/03/18 05:05:38;;;;;;;24.35;10.40;;;0.40;99.90;;;;;;5094714;28;20040;-65
2022/03/18 05:08:04;;;;;;;20.02;10.38;;;0.30;99.90;;;;;;5094599;28;20097;-66
2022/03/18 05:10:30;;;;;;;19.92;10.18;;;0.50;99.90;;;;;;5094438;28;20506;-66
2022/03/18 05:12:56;;;;;;;21.27;10.13;;;0.50;99.90;;;;;;5094634;28;20040;-66
2022/03/18 05:15:23;;;;;;;26.15;10.20;;;0.60;99.90;;;;;;5094515;28;20047;-66
2022/03/18 05:17:51;;;;;;;20.80;10.43;;;0.10;99.90;;;;;;5094506;28;20399;-66
2022/03/18 05:20:18;;;;;;;18.35;9.95;;;0.10;99.90;;;;;;5094432;28;20036;-65
2022/03/18 05:22:45;;;;;;;19.05;9.68;;;0.80;99.90;;;;;;5094206;28;20032;-66
2022/03/18 05:25:12;;;;;;;20.73;10.25;;;0.60;99.90;;;;;;5094170;28;20433;-65
2022/03/18 05:27:41;;;;;;;20.85;9.88;;;0.50;99.90;;;;;;5094155;28;20081;-65
2022/03/18 05:30:13;;;;;;;19.13;10.18;;;0.60;99.90;;;;;;5076457;28;20043;-65
2022/03/18 05:32:40;;;;;;;19.85;9.85;;;0.00;99.90;;;;;;5094152;28;20085;-65
2022/03/18 05:35:06;;;;;;;22.80;11.45;;;0.30;99.90;;;;;;5094035;28;20036;-65
2022/03/18 05:37:32;;;;;;;21.02;10.27;;;0.60;99.90;;;;;;5093812;28;20483;-66
2022/03/18 05:39:58;;;;;;;21.50;10.30;;;0.00;99.90;;;;;;5093899;28;20032;-65
2022/03/18 05:42:23;;;;;;;19.52;10.07;;;0.30;99.90;;;;;;5093771;28;20044;-66
2022/03/18 05:44:49;;;;;;;20.50;10.50;;;;;;;;;;5093785;28;20046;-65
2022/03/18 05:47:16;;;;;;;27.52;11.68;;;0.50;99.90;;;;;;5093873;28;20044;-66
2022/03/18 05:49:41;;;;;;;24.98;11.23;;;0.80;99.90;;;;;;5093078;28;20063;-66
2022/03/18 05:52:08;;;;;;;32.08;12.38;;;0.60;99.90;;;;;;5093651;28;20032;-65
2022/03/18 05:54:36;;;;;;;21.65;10.93;;;;;;;;;;5093911;28;20099;-65
2022/03/18 05:57:02;;;;;;;24.98;10.93;;;0.50;99.90;;;;;;5093690;28;20039;-65
2022/03/18 05:59:30;;;;;;;26.13;12.48;;;0.50;99.90;;;;;;5075440;28;20047;-65
2022/03/18 06:01:59;;;;;;;21.38;11.05;;;0.60;99.90;;;;;;5093812;28;20084;-65
2022/03/18 06:04:27;;;;;;;27.25;12.43;;;0.60;99.90;;;;;;5093372;28;20036;-64
2022/03/18 06:06:53;;;;;;;27.42;12.30;;;0.60;99.90;;;;;;5093703;28;20036;-66
2022/03/18 06:12:05;;;;;;;32.67;12.25;;;0.70;99.90;;;;;;5092500;28;20040;-66
2022/03/18 06:14:31;;;;;;;25.65;12.68;;;0.70;99.90;;;;;;5075498;28;20601;-65
2022/03/18 06:17:00;;;;;;;31.70;15.23;;;1.20;99.90;;;;;;5093391;28;20043;-67
2022/03/18 06:19:26;;;;;;;31.98;15.85;;;1.00;99.90;;;;;;5093493;28;20394;-66
2022/03/18 06:21:52;;;;;;;34.38;15.40;;;1.10;99.90;;;;;;5093311;28;20079;-67
2022/03/18 06:24:20;;;;;;;24.70;13.73;;;2.40;99.90;;;;;;5093349;28;20079;-67
2022/03/18 06:26:47;;;;;;;23.70;12.57;;;3.30;99.90;;;;;;5093635;28;20043;-67
2022/03/18 06:29:13;;;;;;;24.92;12.75;;;3.80;99.90;;;;;;5093211;28;20115;-67
2022/03/18 06:31:39;;;;;;;22.23;12.13;;;4.20;99.90;;;;;;5093402;28;20048;-66
2022/03/18 06:34:06;;;;;;;20.98;10.68;;;4.20;99.90;;;;;;5093450;28;20068;-67
2022/03/18 06:36:32;;;;;;;27.30;10.77;;;5.50;99.90;;;;;;5093054;28;20040;-67
2022/03/18 06:38:58;;;;;;;19.50;10.07;;;6.00;99.90;;;;;;5093081;28;20058;-67
2022/03/18 06:41:23;;;;;;;24.25;9.85;;;7.30;99.90;;;;;;5093075;28;20119;-66
2022/03/18 06:43:50;;;;;;;20.25;8.80;;;8.30;99.90;;;;;;5092846;28;20083;-65
2022/03/18 06:46:16;;;;;;;17.95;9.25;;;8.60;99.90;;;;;;5092867;28;20096;-66
2022/03/18 06:48:42;;;;;;;18.58;8.27;;;9.20;99.90;;;;;;5092988;28;20032;-65
2022/03/18 06:51:09;;;;;;;17.13;7.85;;;9.50;99.90;;;;;;5093148;28;20409;-66
2022/03/18 06:53:35;;;;;;;17.88;8.40;;;8.50;99.90;;;;;;5093136;28;20050;-66
2022/03/18 06:56:01;;;;;;;18.10;7.90;;;8.50;99.90;;;;;;5092859;28;20487;-66
2022/03/18 06:58:30;;;;;;;16.17;7.70;;;7.60;99.90;;;;;;5092841;28;20487;-66
2022/03/18 07:00:57;;;;;;;16.13;8.55;;;6.80;99.90;;;;;;5092680;28;20032;-66
2022/03/18 07:03:23;;;;;;;26.75;8.75;;;;;;;;;;5092882;28;20047;-66
2022/03/18 07:05:49;;;;;;;20.67;8.48;;;6.10;99.90;;;;;;5074639;28;20054;-65
2022/03/18 07:08:15;;;;;;;20.58;8.70;;;5.90;99.90;;;;;;5092812;28;20028;-66
2022/03/18 07:10:41;;;;;;;22.85;9.30;;;6.20;99.90;;;;;;5092775;28;20039;-66
2022/03/18 07:13:07;;;;;;;20.40;9.38;;;5.70;99.90;;;;;;5092551;28;20046;-66
2022/03/18 07:15:33;;;;;;;23.33;9.65;;;;;;;;;;5092621;28;20454;-66
2022/03/18 07:17:59;;;;;;;25.98;10.40;;;5.60;99.90;;;;;;5093029;28;20369;-66
2022/03/18 07:20:28;;;;;;;20.80;10.05;;;5.20;99.90;;;;;;5092900;28;20445;-66
2022/03/18 07:23:12;;;;;;;22.58;10.88;;;5.20;99.90;;;;;;5095467;28;20047;-66
2022/03/18 07:25:40;;;;;;;28.35;11.38;;;4.60;99.90;;;;;;5096352;28;20052;-66
2022/03/18 07:28:09;;;;;;;25.58;10.93;;;5.10;99.90;;;;;;5096460;28;20051;-65
2022/03/18 07:30:37;;;;;;;25.92;10.70;;;5.30;99.90;;;;;;5096441;28;20036;-66
2022/03/18 07:33:03;;;;;;;36.60;10.95;;;5.00;99.90;;;;;;5096504;28;20402;-66
2022/03/18 07:35:30;;;;;;;30.83;11.43;;;5.10;99.90;;;;;;5096244;28;20058;-66
2022/03/18 07:37:55;;;;;;;25.27;10.85;;;5.20;99.90;;;;;;5096109;28;20491;-65
2022/03/18 07:40:21;;;;;;;21.23;10.18;;;;;;;;;;5096296;28;20040;-65
2022/03/18 07:42:52;;;;;;;34.55;10.80;;;4.50;99.90;;;;;;5096246;28;20074;-66
2022/03/18 07:45:26;;;;;;;25.77;12.10;;;5.30;99.90;;;;;;5096127;28;20043;-65
2022/03/18 07:47:59;;;;;;;27.38;11.38;;;5.60;99.90;;;;;;5079398;28;20383;-65
2022/03/18 07:50:27;;;;;;;24.90;10.70;;;5.00;99.90;;;;;;5095527;28;20044;-66
2022/03/18 07:52:58;;;;;;;23.20;11.30;;;5.30;99.90;;;;;;5095636;28;20573;-66
2022/03/18 07:55:26;;;;;;;25.70;10.68;;;5.40;99.90;;;;;;5096138;28;20043;-65
2022/03/18 07:57:52;;;;;;;23.92;11.27;;;5.60;99.90;;;;;;5096139;28;20032;-65
2022/03/18 08:00:19;;;;;;;21.85;10.55;;;5.50;99.90;;;;;;5095969;28;20112;-65
2022/03/18 08:02:47;;;;;;;20.73;10.77;;;5.60;99.90;;;;;;5095888;28;20043;-67
2022/03/18 08:05:14;;;;;;;26.13;10.95;;;5.70;99.90;;;;;;5077832;28;20040;-65
2022/03/18 08:07:41;;;;;;;33.20;11.82;;;5.00;99.90;;;;;;5095742;28;20035;-66
2022/03/18 08:10:08;;;;;;;26.10;11.60;;;5.40;99.90;;;;;;5095799;28;20040;-58
2022/03/18 08:12:35;;;;;;;22.88;10.68;;;5.50;99.90;;;;;;5074706;28;20039;-58
2022/03/18 08:15:04;;;;;;;26.83;11.77;;;5.60;99.90;;;;;;5080293;28;20039;-58
2022/03/18 08:17:31;;;;;;;26.80;12.00;;;5.80;99.90;;;;;;5094535;28;20100;-59
2022/03/18 08:19:56;;;;;;;22.73;11.43;;;5.70;99.90;;;;;;5082348;28;20040;-58
2022/03/18 08:22:23;;;;;;;32.83;12.32;;;5.70;99.90;;;;;;5081696;28;20051;-58
2022/03/18 08:24:49;;;;;;;29.23;12.55;;;6.00;99.90;;;;;;5083942;28;20053;-58
2022/03/18 08:27:15;;;;;;;30.85;15.23;;;;;;;;;;5080041;28;20040;-59
2022/03/18 08:29:41;;;;;;;26.92;12.45;;;;;;;;;;5081026;28;20036;-58
2022/03/18 08:32:11;;;;;;;25.92;12.77;;;8.50;99.90;;;;;;5055849;28;20032;-59
2022/03/18 08:34:37;;;;;;;26.75;12.38;;;9.70;99.90;;;;;;5056659;28;20044;-58
2022/03/18 08:37:05;;;;;;;25.10;12.95;;;10.50;99.90;;;;;;5074474;28;20101;-58
2022/03/18 08:39:32;;;;;;;23.60;12.43;;;11.30;99.90;;;;;;5074180;28;20384;-59
2022/03/18 08:41:58;;;;;;;26.08;12.43;;;;;;;;;;5079563;28;20040;-59
2022/03/18 08:44:24;;;;;;;81.47;13.93;;;;;;;;;;5087574;28;20036;-59
2022/03/18 08:46:50;;;;;;;26.35;12.52;;;12.50;99.90;;;;;;5063478;28;20040;-59
2022/03/18 08:49:16;;;;;;;27.38;10.60;;;12.70;99.90;;;;;;5073670;28;20507;-59
2022/03/18 08:51:42;;;;;;;22.77;11.32;;;12.60;99.90;;;;;;5074343;28;20089;-59
2022/03/18 08:54:08;;;;;;;26.55;10.70;;;;;;;;;;5073883;28;20041;-59
2022/03/18 08:56:34;;;;;;;23.85;11.35;;;12.60;99.90;;;;;;5074036;28;20045;-59
2022/03/18 08:59:03;;;;;;;21.95;10.30;;;12.90;99.90;;;;;;5081079;28;20509;-59
2022/03/18 09:01:29;;;;;;;33.72;11.55;;;13.50;99.90;;;;;;5075779;28;20039;-59
2022/03/18 09:03:55;;;;;;;21.20;11.80;;;13.20;99.90;;;;;;5075738;28;20036;-59
2022/03/18 09:06:21;;;;;;;24.17;10.75;;;13.40;99.90;;;;;;5093784;28;20422;-59
2022/03/18 09:08:47;;;;;;;22.38;10.75;;;13.10;99.90;;;;;;5093946;28;20054;-59
2022/03/18 09:11:12;;;;;;;22.23;11.25;;;12.40;99.90;;;;;;5075369;28;20157;-60
2022/03/18 09:13:38;;;;;;;36.47;12.02;;;;;;;;;;5093836;28;20055;-60
2022/03/18 09:16:05;;;;;;;32.85;10.95;;;;;;;;;;5093599;28;20051;-60
2022/03/18 09:18:32;;;;;;;19.88;10.93;;;13.40;99.90;;;;;;5094066;28;20044;-60
2022/03/18 09:20:58;;;;;;;21.42;11.13;;;13.30;99.90;;;;;;5094022;28;20063;-60
2022/03/18 09:23:24;;;;;;;29.90;11.73;;;12.90;99.90;;;;;;5093425;28;20076;-60
2022/03/18 09:25:51;;;;;;;20.88;11.20;;;13.60;99.90;;;;;;5093481;28;20059;-60
2022/03/18 09:28:17;;;;;;;23.30;10.52;;;13.50;99.90;;;;;;5092966;28;20032;-60
2022/03/18 09:30:43;;;;;;;24.05;11.20;;;13.20;99.90;;;;;;5093260;28;20465;-60
2022/03/18 09:33:10;;;;;;;25.48;12.35;;;13.10;99.90;;;;;;5074969;28;20126;-60
2022/03/18 09:35:36;;;;;;;23.17;11.60;;;13.10;99.90;;;;;;5093600;28;20032;-60
2022/03/18 09:38:02;;;;;;;21.65;11.70;;;13.20;99.90;;;;;;5093635;28;20453;-60
2022/03/18 09:40:29;;;;;;;25.85;12.43;;;12.60;99.90;;;;;;5093201;28;20075;-60
2022/03/18 09:43:07;;;;;;;23.75;12.10;;;13.00;99.90;;;;;;5093233;28;20032;-60
2022/03/18 09:45:35;;;;;;;21.70;11.45;;;13.10;99.90;;;;;;5091454;28;20074;-60
2022/03/18 09:48:07;;;;;;;24.45;13.00;;;13.30;99.90;;;;;;5092480;28;20505;-60
2022/03/18 09:50:33;;;;;;;25.52;12.20;;;13.10;99.90;;;;;;5092199;28;20498;-60
2022/03/18 09:53:00;;;;;;;23.08;12.30;;;13.00;99.90;;;;;;5092880;28;20043;-60
2022/03/18 09:55:26;;;;;;;26.75;12.77;;;13.10;99.90;;;;;;5092827;28;20081;-60
2022/03/18 09:57:52;;;;;;;26.55;12.38;;;12.60;99.90;;;;;;5092995;28;20043;-60
2022/03/18 10:00:19;;;;;;;24.92;12.38;;;;;;;;;;5076763;28;20132;-60
2022/03/18 10:02:44;;;;;;;24.58;11.95;;;13.20;99.90;;;;;;5085965;28;20093;-60
2022/03/18 10:05:14;;;;;;;35.17;13.25;;;13.40;99.90;;;;;;5084076;28;20036;-60
2022/03/18 10:07:53;;;;;;;32.47;12.15;;;13.60;99.90;;;;;;5092805;28;20040;-60
2022/03/18 10:10:20;;;;;;;27.95;11.68;;;13.80;99.90;;;;;;5084516;28;20037;-60
2022/03/18 10:12:48;;;;;;;47.80;12.45;;;13.70;99.90;;;;;;5072556;28;20048;-60
2022/03/18 10:15:22;;;;;;;28.25;12.45;;;13.90;99.90;;;;;;5071318;28;20467;-60
2022/03/18 10:17:52;;;;;;;24.92;11.93;;;13.80;99.90;;;;;;5072597;28;20445;-69
2022/03/18 10:20:26;;;;;;;27.38;11.45;;;13.70;99.90;;;;;;5072190;28;20032;-68
2022/03/18 10:22:53;;;;;;;24.42;11.68;;;13.80;99.90;;;;;;5072319;28;20486;-69
2022/03/18 10:25:42;;;;;;;27.80;10.98;;;13.70;99.90;;;;;;5074564;28;20395;-69
2022/03/18 10:28:10;;;;;;;27.73;10.88;;;13.80;99.90;;;;;;5072091;28;20483;-68
2022/03/18 10:30:36;;;;;;;20.17;10.65;;;13.50;99.90;;;;;;5092127;28;20510;-69
2022/03/18 10:33:03;;;;;;;24.85;11.45;;;13.40;99.90;;;;;;5074552;28;20044;-69
2022/03/18 10:38:31;;;;;;;24.48;11.73;;;13.70;99.90;;;;;;5050841;28;20052;-68
2022/03/18 10:40:58;;;;;;;27.77;11.18;;;13.70;99.90;;;;;;5074663;28;20067;-68
2022/03/18 10:43:25;;;;;;;20.90;10.63;;;13.70;99.90;;;;;;5091207;28;20131;-68
2022/03/18 10:46:03;;;;;;;23.25;10.82;;;13.70;99.90;;;;;;5092077;28;20040;-68
2022/03/18 10:48:29;;;;;;;20.02;11.02;;;;;;;;;;5092320;28;20391;-68
2022/03/18 10:51:08;;;;;;;22.38;10.90;;;13.60;99.90;;;;;;5092320;28;20093;-69
2022/03/18 10:53:34;;;;;;;23.13;11.35;;;;;;;;;;5091633;28;20055;-69
2022/03/18 10:56:02;;;;;;;22.98;10.55;;;13.40;99.90;;;;;;5082783;28;20388;-68
2022/03/18 10:58:35;;;;;;;30.02;11.85;;;12.90;99.90;;;;;;5087933;28;20036;-68
2022/03/18 11:01:02;;;;;;;20.38;10.50;;;13.30;99.90;;;;;;5085293;28;20046;-68
2022/03/18 11:03:30;;;;;;;27.25;10.63;;;13.50;99.90;;;;;;5096353;28;20075;-68
2022/03/18 11:06:02;;;;;;;44.22;13.45;;;13.60;99.90;;;;;;5096308;28;20064;-71
2022/03/18 11:08:37;;;;;;;26.08;11.50;;;13.90;99.90;;;;;;5095930;28;20036;-69
2022/03/18 11:11:07;;;;;;;21.30;10.43;;;13.80;99.90;;;;;;5096539;28;20035;-69
2022/03/18 11:14:03;;;;;;;19.40;9.32;;;14.20;99.90;;;;;;5096180;28;20047;-68
2022/03/18 11:16:36;;;;;;;22.10;9.70;;;13.90;99.90;;;;;;5096113;28;20048;-60
2022/03/18 11:19:08;;;;;;;25.52;10.30;;;13.70;99.90;;;;;;5095941;28;20115;-60
2022/03/18 11:21:40;;;;;;;17.27;7.22;;;13.20;99.90;;;;;;5078448;28;20047;-60
2022/03/18 11:24:09;;;;;;;17.23;7.45;;;14.40;99.90;;;;;;5068751;28;20036;-61
2022/03/18 11:26:36;;;;;;;16.27;8.82;;;14.10;99.90;;;;;;5071706;28;20495;-60
2022/03/18 11:29:09;;;;;;;23.77;9.23;;;14.10;99.90;;;;;;5095746;28;20042;-60
2022/03/18 11:31:35;;;;;;;19.52;8.48;;;13.90;99.90;;;;;;5061560;28;20044;-60
2022/03/18 11:34:09;;;;;;;20.20;8.27;;;14.40;99.90;;;;;;5096000;28;20450;-61
2022/03/18 11:36:37;;;;;;;24.27;8.88;;;13.50;99.90;;;;;;5095952;28;20039;-60
2022/03/18 11:39:06;;;;;;;16.95;7.75;;;14.60;99.90;;;;;;5096121;28;20040;-60
2022/03/18 11:41:51;;;;;;;20.83;8.35;;;14.80;99.90;;;;;;5077763;28;20488;-61
2022/03/18 11:44:44;;;;;;;19.53;8.80;;;15.00;99.90;;;;;;5094976;28;20036;-61
2022/03/18 11:47:30;;;;;;;19.13;8.70;;;14.90;99.90;;;;;;5095635;28;20360;-61
2022/03/18 11:49:56;;;;;;;19.73;8.38;;;;;;;;;;5084983;28;20072;-60
2022/03/18 11:52:22;;;;;;;21.05;8.07;;;15.30;99.90;;;;;;5095117;28;20120;-60
2022/03/18 11:54:51;;;;;;;19.00;8.38;;;15.20;99.90;;;;;;5095501;28;20131;-60
2022/03/18 11:57:47;;;;;;;17.15;8.80;;;15.40;99.70;;;;;;5095356;28;20123;-61
2022/03/18 12:00:31;;;;;;;24.10;8.82;;;15.90;99.90;;;;;;5054254;28;20056;-61
2022/03/18 12:03:00;;;;;;;26.40;9.45;;;;;;;;;;5074770;28;20040;-61
2022/03/18 12:05:30;;;;;;;21.85;9.10;;;;;;;;;;5074820;28;20041;-60
2022/03/18 12:07:57;;;;;;;24.38;9.75;;;;;;;;;;5074234;28;20101;-61
2022/03/18 12:10:38;;;;;;;18.13;8.75;;;15.50;99.90;;;;;;5074658;28;20044;-60
2022/03/18 12:13:05;;;;;;;17.38;8.00;;;;;;;;;;5075147;28;20080;-62
2022/03/18 12:15:36;;;;;;;21.50;7.38;;;15.50;99.90;;;;;;5074292;28;20097;-61
2022/03/18 12:18:03;;;;;;;19.85;7.32;;;;;;;;;;5074822;28;20067;-61
2022/03/18 12:20:32;;;;;;;19.88;7.03;;;15.50;96.80;;;;;;5056577;28;20325;-61
2022/03/18 12:23:02;;;;;;;16.10;6.75;;;15.30;99.90;;;;;;5075093;28;20032;-61
2022/03/18 12:25:28;;;;;;;15.95;7.15;;;;;;;;;;5075151;28;20049;-60
2022/03/18 12:27:54;;;;;;;12.52;6.10;;;15.40;99.90;;;;;;5075618;28;20044;-61
2022/03/18 12:30:25;;;;;;;14.35;6.05;;;15.20;97.10;;;;;;5075126;28;20052;-60
2022/03/18 12:32:52;;;;;;;10.38;3.67;;;15.30;96.80;;;;;;5075597;28;20044;-60
2022/03/18 12:35:19;;;;;;;11.00;2.95;;;;;;;;;;5075356;28;20133;-61
2022/03/18 12:37:46;;;;;;;11.88;2.72;;;15.20;99.90;;;;;;5075405;28;20388;-61
2022/03/18 12:40:13;;;;;;;8.55;2.20;;;15.00;99.90;;;;;;5075312;28;20078;-61
2022/03/18 12:42:52;;;;;;;13.60;3.28;;;14.90;99.90;;;;;;5075350;28;20060;-60
2022/03/18 12:45:47;;;;;;;10.02;3.05;;;14.70;79.30;;;;;;5073712;28;20396;-61
2022/03/18 12:48:15;;;;;;;12.68;3.60;;;14.50;87.00;;;;;;5040128;28;20044;-61
2022/03/18 12:50:49;;;;;;;10.35;3.22;;;14.60;99.90;;;;;;5075161;28;20029;-61
2022/03/18 12:53:31;;;;;;;9.70;2.92;;;14.70;99.90;;;;;;5075073;28;20153;-61
2022/03/18 12:55:59;;;;;;;15.88;3.25;;;;;;;;;;5075065;28;20080;-61
2022/03/18 12:58:27;;;;;;;9.93;4.00;;;14.80;86.20;;;;;;5074910;28;20040;-61
2022/03/18 13:00:56;;;;;;;13.05;3.72;;;14.90;86.20;;;;;;5073438;28;20044;-62
2022/03/18 13:03:25;;;;;;;12.98;3.33;;;15.30;83.00;;;;;;5073697;28;20072;-62
2022/03/18 13:05:52;;;;;;;11.60;4.00;;;;;;;;;;5074008;28;20036;-61